Time;durP1;ratioP1;P1;durP2;ratioP2;P2;SDS_P1;SDS_P2;PMS_P1;PMS_P2;Temp;Humidity;BMP_temperature;BMP_pressure;BME280_temperature;BME280_humidity;BME280_pressure;Samples;Min_cycle;Max_cycle;Signal;HPM_P1;HPM_P2
2022/03/16 00:02:03;;;;;;;;;;;;;;;;;;5026176;28;19917;-83
2022/03/16 00:04:29;;;;;;;;;;;;;;;;;;5026774;28;19910;-83
2022/03/16 00:06:56;;;;;;;;;;;;;;;;;;5008834;28;20206;-86
2022/03/16 00:09:21;;;;;;;;;;;;;;;;;;5026349;28;19994;-88
2022/03/16 00:11:47;;;;;;;;;;;;;;;;;;5024492;28;19959;-82
2022/03/16 00:14:12;;;;;;;;;;;;;;;;;;5023291;28;19910;-80
2022/03/16 00:16:37;;;;;;;;;;;;;;;;;;5023677;28;19916;-84
2022/03/16 00:19:03;;;;;;;;;;;;;;;;;;5024714;28;19956;-86
2022/03/16 00:21:28;;;;;;;;;;;;;;;;;;5042657;28;19931;-83
2022/03/16 00:23:53;;;;;;;;;;;;;;;;;;5045564;28;19913;-84
2022/03/16 00:26:18;;;;;;;;;;;;;;;;;;5028448;28;19968;-83
2022/03/16 00:28:43;;;;;;;;;;;;;;;;;;5027969;28;19910;-84
2022/03/16 00:31:08;;;;;;;;;;;;;;;;;;5028361;28;19920;-83
2022/03/16 00:33:34;;;;;;;;;;;;;;;;;;5028391;28;20307;-83
2022/03/16 00:35:59;;;;;;;;;;;;;;;;;;5045210;28;19909;-80
2022/03/16 00:38:24;;;;;;;;;;;;;;;;;;5028575;28;19909;-83
2022/03/16 00:40:49;;;;;;;;;;;;;;;;;;5025063;28;19927;-84
2022/03/16 00:43:14;;;;;;;;;;;;;;;;;;5024956;28;19913;-80
2022/03/16 00:45:39;;;;;;;;;;;;;;;;;;5025524;28;19972;-78
2022/03/16 00:48:04;;;;;;;;;;;;;;;;;;5024302;28;19910;-86
2022/03/16 00:50:29;;;;;;;;;;;;;;;;;;5024203;28;19992;-85
2022/03/16 00:52:54;;;;;;;;;;;;;;;;;;5024749;28;20037;-84
2022/03/16 00:55:20;;;;;;;;;;;;;;;;;;5025107;28;19894;-85
2022/03/16 00:57:45;;;;;;;;;;;;;;;;;;5024706;28;19945;-84
2022/03/16 01:00:10;;;;;;;;;;;;;;;;;;5024753;28;19916;-78
2022/03/16 01:02:35;;;;;;;;;;;;;;;;;;5023006;28;19916;-84
2022/03/16 01:05:00;;;;;;;;;;;;;;;;;;5025070;28;19909;-83
2022/03/16 01:07:26;;;;;;;;;;;;;;;;;;5023818;28;19921;-84
2022/03/16 01:09:51;;;;;;;;;;;;;;;;;;5023799;28;19909;-86
2022/03/16 01:12:16;;;;;;;;;;;;;;;;;;5040516;28;19966;-86
2022/03/16 01:14:41;;;;;;;;;;;;;;;;;;5025030;28;19917;-85
2022/03/16 01:17:06;;;;;;;;;;;;;;;;;;5023913;28;19910;-79
2022/03/16 01:19:34;;;;;;;;;;;;;;;;;;5039921;28;20019;-87
2022/03/16 01:21:59;;;;;;;;;;;;;;;;;;5056392;28;20292;-87
2022/03/16 01:24:24;;;;;;;;;;;;;;;;;;5025364;28;20363;-84
2022/03/16 01:26:50;;;;;;;;;;;;;;;;;;5056661;28;19976;-83
2022/03/16 01:29:15;;;;;;;;;;;;;;;;;;5024771;28;19952;-84
2022/03/16 01:31:40;;;;;;;;;;;;;;;;;;5057093;28;19909;-81
2022/03/16 01:34:05;;;;;;;;;;;;;;;;;;5031006;28;19914;-78
2022/03/16 01:36:30;;;;;;;;;;;;;;;;;;5006061;28;19910;-84
2022/03/16 01:38:55;;;;;;;;;;;;;;;;;;5004334;28;20429;-84
2022/03/16 01:41:20;;;;;;;;;;;;;;;;;;5004028;28;20004;-85
2022/03/16 01:43:45;;;;;;;;;;;;;;;;;;5004680;28;19906;-82
2022/03/16 01:46:12;;;;;;;;;;;;;;;;;;5003381;28;19968;-84
2022/03/16 01:48:37;;;;;;;;;;;;;;;;;;5004082;28;19921;-79
2022/03/16 01:51:02;;;;;;;;;;;;;;;;;;5002996;28;19914;-79
2022/03/16 01:53:29;;;;;;;;;;;;;;;;;;5003047;28;19956;-81
2022/03/16 01:55:55;;;;;;;;;;;;;;;;;;5003763;28;19936;-82
2022/03/16 01:58:20;;;;;;;;;;;;;;;;;;5004565;28;19910;-86
2022/03/16 02:00:46;;;;;;;;;;;;;;;;;;5004833;28;19924;-85
2022/03/16 02:03:11;;;;;;;;;;;;;;;;;;5003899;28;19909;-82
2022/03/16 02:05:36;;;;;;;;;;;;;;;;;;5003107;28;19918;-80
2022/03/16 02:08:01;;;;;;;;;;;;;;;;;;5003678;28;20347;-81
2022/03/16 02:10:26;;;;;;;;;;;;;;;;;;5004367;28;19917;-83
2022/03/16 02:12:51;;;;;;;;;;;;;;;;;;5004514;28;19926;-83
2022/03/16 02:15:16;;;;;;;;;;;;;;;;;;5004146;28;19916;-85
2022/03/16 02:17:41;;;;;;;;;;;;;;;;;;5004339;28;19909;-84
2022/03/16 02:20:08;;;;;;;;;;;;;;;;;;4999106;28;19925;-82
2022/03/16 02:22:33;;;;;;;;;;;;;;;;;;4985369;28;19921;-82
2022/03/16 02:24:58;;;;;;;;;;;;;;;;;;4968394;28;19910;-82
2022/03/16 02:27:23;;;;;;;;;;;;;;;;;;4984351;28;19918;-81
2022/03/16 02:29:49;;;;;;;;;;;;;;;;;;4985045;28;20406;-82
2022/03/16 02:32:14;;;;;;;;;;;;;;;;;;4966031;28;19915;-82
2022/03/16 02:34:39;;;;;;;;;;;;;;;;;;4966079;28;19910;-80
2022/03/16 02:37:05;;;;;;;;;;;;;;;;;;4984033;28;19921;-80
2022/03/16 02:39:30;;;;;;;;;;;;;;;;;;4986361;28;19949;-82
2022/03/16 02:41:55;;;;;;;;;;;;;;;;;;4968957;28;19917;-82
2022/03/16 02:44:20;;;;;;;;;;;;;;;;;;4985049;28;19981;-82
2022/03/16 02:46:46;;;;;;;;;;;;;;;;;;4968082;28;20345;-84
2022/03/16 02:49:11;;;;;;;;;;;;;;;;;;4969316;28;19918;-85
2022/03/16 02:51:36;;;;;;;;;;;;;;;;;;4968839;28;19998;-83
2022/03/16 02:54:01;;;;;;;;;;;;;;;;;;4967430;28;19911;-83
2022/03/16 02:56:27;;;;;;;;;;;;;;;;;;4969436;28;19910;-84
2022/03/16 02:58:52;;;;;;;;;;;;;;;;;;4987172;28;20359;-84
2022/03/16 03:01:17;;;;;;;;;;;;;;;;;;4969228;28;19910;-83
2022/03/16 03:03:42;;;;;;;;;;;;;;;;;;4986773;28;19906;-85
2022/03/16 03:06:08;;;;;;;;;;;;;;;;;;4986289;28;19918;-85
2022/03/16 03:08:33;;;;;;;;;;;;;;;;;;4968222;28;19910;-79
2022/03/16 03:10:58;;;;;;;;;;;;;;;;;;4968787;28;19910;-84
2022/03/16 03:13:23;;;;;;;;;;;;;;;;;;4969007;28;19910;-84
2022/03/16 03:15:48;;;;;;;;;;;;;;;;;;4989174;28;19996;-79
2022/03/16 03:18:13;;;;;;;;;;;;;;;;;;4969091;28;19910;-82
2022/03/16 03:20:38;;;;;;;;;;;;;;;;;;4993161;28;19982;-85
2022/03/16 03:23:03;;;;;;;;;;;;;;;;;;4987295;28;19945;-83
2022/03/16 03:25:28;;;;;;;;;;;;;;;;;;5004108;28;19918;-83
2022/03/16 03:27:54;;;;;;;;;;;;;;;;;;5004541;28;19926;-82
2022/03/16 03:30:19;;;;;;;;;;;;;;;;;;4987269;28;19910;-85
2022/03/16 03:32:44;;;;;;;;;;;;;;;;;;4987169;28;19910;-80
2022/03/16 03:35:09;;;;;;;;;;;;;;;;;;4988498;28;19910;-84
2022/03/16 03:37:36;;;;;;;;;;;;;;;;;;4988120;28;20009;-84
2022/03/16 03:40:01;;;;;;;;;;;;;;;;;;4987273;28;19910;-82
2022/03/16 03:42:26;;;;;;;;;;;;;;;;;;4987084;28;19910;-86
2022/03/16 03:44:57;;;;;;;;;;;;;;;;;;5005648;28;19910;-85
2022/03/16 03:47:22;;;;;;;;;;;;;;;;;;5004594;28;19964;-82
2022/03/16 03:49:47;;;;;;;;;;;;;;;;;;4987642;28;19914;-82
2022/03/16 03:52:12;;;;;;;;;;;;;;;;;;4987327;28;19914;-83
2022/03/16 03:54:40;;;;;;;;;;;;;;;;;;5004568;28;19909;-82
2022/03/16 03:57:05;;;;;;;;;;;;;;;;;;4987708;28;19914;-80
2022/03/16 03:59:30;;;;;;;;;;;;;;;;;;4987001;28;19936;-83
2022/03/16 04:01:55;;;;;;;;;;;;;;;;;;4987338;28;19937;-82
2022/03/16 04:04:20;;;;;;;;;;;;;;;;;;4987768;28;20271;-81
2022/03/16 04:06:46;;;;;;;;;;;;;;;;;;4987251;28;19921;-82
2022/03/16 04:09:11;;;;;;;;;;;;;;;;;;5004735;28;19981;-81
2022/03/16 04:11:36;;;;;;;;;;;;;;;;;;4987280;28;19940;-84
2022/03/16 04:14:01;;;;;;;;;;;;;;;;;;5004177;28;19913;-80
2022/03/16 04:16:26;;;;;;;;;;;;;;;;;;5004349;28;19964;-84
2022/03/16 04:18:51;;;;;;;;;;;;;;;;;;4987245;28;19956;-82
2022/03/16 04:21:17;;;;;;;;;;;;;;;;;;5004184;28;19977;-81
2022/03/16 04:23:42;;;;;;;;;;;;;;;;;;4987385;28;19914;-80
2022/03/16 04:26:07;;;;;;;;;;;;;;;;;;4986223;28;19918;-82
2022/03/16 04:28:32;;;;;;;;;;;;;;;;;;4986521;28;19961;-81
2022/03/16 04:30:57;;;;;;;;;;;;;;;;;;5003585;28;19910;-86
2022/03/16 04:33:22;;;;;;;;;;;;;;;;;;4985624;28;19910;-85
2022/03/16 04:35:47;;;;;;;;;;;;;;;;;;5003855;28;20007;-83
2022/03/16 04:38:12;;;;;;;;;;;;;;;;;;5003563;28;19910;-85
2022/03/16 04:40:37;;;;;;;;;;;;;;;;;;4986034;28;19898;-81
2022/03/16 04:43:03;;;;;;;;;;;;;;;;;;4985827;28;20305;-80
2022/03/16 04:45:29;;;;;;;;;;;;;;;;;;5002826;28;19917;-82
2022/03/16 04:47:54;;;;;;;;;;;;;;;;;;5003918;28;19910;-81
2022/03/16 04:50:19;;;;;;;;;;;;;;;;;;5004584;28;19921;-83
2022/03/16 04:52:44;;;;;;;;;;;;;;;;;;5004129;28;19921;-85
2022/03/16 04:55:11;;;;;;;;;;;;;;;;;;4987056;28;19945;-83
2022/03/16 04:57:36;;;;;;;;;;;;;;;;;;4986176;28;19933;-83
2022/03/16 05:00:01;;;;;;;;;;;;;;;;;;4985182;28;19909;-79
2022/03/16 05:02:26;;;;;;;;;;;;;;;;;;5002044;28;19932;-83
2022/03/16 05:04:52;;;;;;;;;;;;;;;;;;4985800;28;20056;-85
2022/03/16 05:07:18;;;;;;;;;;;;;;;;;;5003486;28;19965;-84
2022/03/16 05:09:43;;;;;;;;;;;;;;;;;;5003335;28;19918;-85
2022/03/16 05:12:08;;;;;;;;;;;;;;;;;;5004140;28;19910;-85
2022/03/16 05:14:33;;;;;;;;;;;;;;;;;;5004755;28;19925;-83
2022/03/16 05:16:58;;;;;;;;;;;;;;;;;;4985331;28;19910;-79
2022/03/16 05:19:25;;;;;;;;;;;;;;;;;;5003263;28;19921;-83
2022/03/16 05:21:50;;;;;;;;;;;;;;;;;;5003428;28;19933;-85
2022/03/16 05:24:20;;;;;;;;;;;;;;;;;;4986542;28;19914;-81
2022/03/16 05:26:45;;;;;;;;;;;;;;;;;;4987084;28;19925;-82
2022/03/16 05:29:10;;;;;;;;;;;;;;;;;;4987144;28;19910;-83
2022/03/16 05:31:35;;;;;;;;;;;;;;;;;;4986761;28;19911;-86
2022/03/16 05:34:00;;;;;;;;;;;;;;;;;;4986225;28;19910;-82
2022/03/16 05:36:25;;;;;;;;;;;;;;;;;;4986584;28;19910;-82
2022/03/16 05:38:50;;;;;;;;;;;;;;;;;;5004145;28;19910;-83
2022/03/16 05:41:17;;;;;;;;;;;;;;;;;;4986821;28;19914;-84
2022/03/16 05:43:42;;;;;;;;;;;;;;;;;;4987566;28;19910;-82
2022/03/16 05:46:07;;;;;;;;;;;;;;;;;;5004734;28;19921;-81
2022/03/16 05:48:32;;;;;;;;;;;;;;;;;;4985943;28;19910;-81
2022/03/16 05:50:57;;;;;;;;;;;;;;;;;;4984148;28;19928;-80
2022/03/16 05:53:23;;;;;;;;;;;;;;;;;;5001954;28;19982;-79
2022/03/16 05:55:48;;;;;;;;;;;;;;;;;;5002577;28;20013;-80
2022/03/16 05:58:13;;;;;;;;;;;;;;;;;;4987543;28;20291;-84
2022/03/16 06:00:41;;;;;;;;;;;;;;;;;;4987915;28;19894;-82
2022/03/16 06:03:06;;;;;;;;;;;;;;;;;;4987071;28;19985;-83
2022/03/16 06:05:34;;;;;;;;;;;;;;;;;;5003619;28;19916;-80
2022/03/16 06:08:01;;;;;;;;;;;;;;;;;;5002822;28;19950;-77
2022/03/16 06:10:28;;;;;;;;;;;;;;;;;;5004221;28;19917;-82
2022/03/16 06:12:53;;;;;;;;;;;;;;;;;;5007482;28;19941;-80
2022/03/16 06:15:18;;;;;;;;;;;;;;;;;;4990960;28;19917;-82
2022/03/16 06:17:43;;;;;;;;;;;;;;;;;;4990848;28;19910;-84
2022/03/16 06:20:08;;;;;;;;;;;;;;;;;;4991448;28;20367;-83
2022/03/16 06:22:33;;;;;;;;;;;;;;;;;;5006105;28;19953;-82
2022/03/16 06:24:58;;;;;;;;;;;;;;;;;;5023119;28;20348;-82
2022/03/16 06:27:23;;;;;;;;;;;;;;;;;;5022587;28;19918;-87
2022/03/16 06:29:48;;;;;;;;;;;;;;;;;;5021888;28;19920;-87
2022/03/16 06:32:13;;;;;;;;;;;;;;;;;;5021769;28;19917;-85
2022/03/16 06:34:39;;;;;;;;;;;;;;;;;;5020934;28;19901;-84
2022/03/16 06:37:04;;;;;;;;;;;;;;;;;;5022225;28;19910;-84
2022/03/16 06:39:29;;;;;;;;;;;;;;;;;;5003487;28;19932;-79
2022/03/16 06:41:54;;;;;;;;;;;;;;;;;;5016555;28;19910;-84
2022/03/16 06:44:19;;;;;;;;;;;;;;;;;;5018748;28;19909;-83
2022/03/16 06:46:46;;;;;;;;;;;;;;;;;;5020524;28;19918;-85
2022/03/16 06:49:11;;;;;;;;;;;;;;;;;;5021949;28;19910;-83
2022/03/16 06:51:37;;;;;;;;;;;;;;;;;;5020115;28;19913;-85
2022/03/16 06:54:02;;;;;;;;;;;;;;;;;;5020029;28;19917;-86
2022/03/16 06:56:27;;;;;;;;;;;;;;;;;;5020113;28;19917;-84
2022/03/16 06:58:52;;;;;;;;;;;;;;;;;;5019700;28;19913;-85
2022/03/16 07:01:17;;;;;;;;;;;;;;;;;;5019202;28;19914;-79
2022/03/16 07:03:43;;;;;;;;;;;;;;;;;;5021697;28;20425;-85
2022/03/16 07:06:10;;;;;;;;;;;;;;;;;;5018618;28;19964;-83
2022/03/16 07:08:35;;;;;;;;;;;;;;;;;;5019386;28;20402;-83
2022/03/16 07:11:00;;;;;;;;;;;;;;;;;;5019885;28;20286;-82
2022/03/16 07:13:25;;;;;;;;;;;;;;;;;;5021045;28;19910;-81
2022/03/16 07:15:50;;;;;;;;;;;;;;;;;;5020645;28;19914;-83
2022/03/16 07:18:16;;;;;;;;;;;;;;;;;;5023645;28;19913;-82
2022/03/16 07:20:41;;;;;;;;;;;;;;;;;;5025253;28;19927;-82
2022/03/16 07:23:06;;;;;;;;;;;;;;;;;;5006584;28;19913;-83
2022/03/16 07:25:31;;;;;;;;;;;;;;;;;;5003870;28;19910;-84
2022/03/16 07:27:56;;;;;;;;;;;;;;;;;;5002102;28;20286;-81
2022/03/16 07:30:21;;;;;;;;;;;;;;;;;;5020353;28;19945;-84
2022/03/16 07:32:46;;;;;;;;;;;;;;;;;;5003509;28;20421;-83
2022/03/16 07:35:11;;;;;;;;;;;;;;;;;;5002401;28;19916;-84
2022/03/16 07:37:36;;;;;;;;;;;;;;;;;;5018863;28;19909;-82
2022/03/16 07:40:02;;;;;;;;;;;;;;;;;;5002103;28;19910;-81
2022/03/16 07:42:27;;;;;;;;;;;;;;;;;;5019441;28;19909;-85
2022/03/16 07:44:53;;;;;;;;;;;;;;;;;;5001204;28;20023;-84
2022/03/16 07:47:18;;;;;;;;;;;;;;;;;;5001076;28;19983;-81
2022/03/16 07:49:43;;;;;;;;;;;;;;;;;;5002289;28;20390;-83
2022/03/16 07:52:08;;;;;;;;;;;;;;;;;;5002309;28;19922;-84
2022/03/16 07:54:33;;;;;;;;;;;;;;;;;;5018947;28;19900;-82
2022/03/16 07:56:58;;;;;;;;;;;;;;;;;;5019081;28;19914;-83
2022/03/16 07:59:23;;;;;;;;;;;;;;;;;;5019069;28;19914;-78
2022/03/16 08:01:48;;;;;;;;;;;;;;;;;;5001647;28;19909;-83
2022/03/16 08:04:15;;;;;;;;;;;;;;;;;;5001670;28;19917;-81
2022/03/16 08:06:40;;;;;;;;;;;;;;;;;;5019389;28;19924;-84
2022/03/16 08:09:06;;;;;;;;;;;;;;;;;;5020015;28;19909;-82
2022/03/16 08:11:31;;;;;;;;;;;;;;;;;;5020107;28;19909;-81
2022/03/16 08:13:56;;;;;;;;;;;;;;;;;;5003090;28;19910;-81
2022/03/16 08:16:23;;;;;;;;;;;;;;;;;;5003317;28;19910;-85
2022/03/16 08:18:48;;;;;;;;;;;;;;;;;;5003845;28;19913;-85
2022/03/16 08:21:13;;;;;;;;;;;;;;;;;;5013285;28;19963;-80
2022/03/16 08:23:38;;;;;;;;;;;;;;;;;;5020669;28;19973;-83
2022/03/16 08:26:03;;;;;;;;;;;;;;;;;;5019959;28;20306;-85
2022/03/16 08:28:28;;;;;;;;;;;;;;;;;;5017354;28;20000;-83
2022/03/16 08:30:54;;;;;;;;;;;;;;;;;;5018779;28;20445;-83
2022/03/16 08:33:19;;;;;;;;;;;;;;;;;;5017137;28;19916;-83
2022/03/16 08:35:44;;;;;;;;;;;;;;;;;;5017628;28;19917;-81
2022/03/16 08:38:09;;;;;;;;;;;;;;;;;;5019785;28;19909;-84
2022/03/16 08:40:34;;;;;;;;;;;;;;;;;;5020850;28;19963;-83
2022/03/16 08:42:59;;;;;;;;;;;;;;;;;;5020533;28;19906;-84
2022/03/16 08:45:24;;;;;;;;;;;;;;;;;;5018519;28;19909;-78
2022/03/16 08:47:50;;;;;;;;;;;;;;;;;;5018932;28;19917;-80
2022/03/16 08:50:15;;;;;;;;;;;;;;;;;;5018842;28;20419;-83
2022/03/16 08:52:40;;;;;;;;;;;;;;;;;;5019725;28;19913;-83
2022/03/16 08:55:05;;;;;;;;;;;;;;;;;;5021547;28;19913;-81
2022/03/16 08:57:31;;;;;;;;;;;;;;;;;;5019711;28;19909;-82
2022/03/16 08:59:56;;;;;;;;;;;;;;;;;;5021671;28;19916;-83
2022/03/16 09:02:21;;;;;;;;;;;;;;;;;;5020226;28;19910;-84
2022/03/16 09:04:47;;;;;;;;;;;;;;;;;;5018392;28;20025;-84
2022/03/16 09:07:12;;;;;;;;;;;;;;;;;;5020249;28;19949;-83
2022/03/16 09:09:37;;;;;;;;;;;;;;;;;;5021429;28;19916;-86
2022/03/16 09:12:02;;;;;;;;;;;;;;;;;;5021333;28;19989;-85
2022/03/16 09:14:27;;;;;;;;;;;;;;;;;;5019997;28;19898;-86
2022/03/16 09:16:52;;;;;;;;;;;;;;;;;;5018788;28;19912;-86
2022/03/16 09:19:20;;;;;;;;;;;;;;;;;;5017697;28;19937;-81
2022/03/16 09:21:47;;;;;;;;;;;;;;;;;;5017550;28;19937;-87
2022/03/16 09:24:12;;;;;;;;;;;;;;;;;;5020192;28;19910;-87
2022/03/16 09:26:37;;;;;;;;;;;;;;;;;;5018137;28;20385;-86
2022/03/16 09:29:02;;;;;;;;;;;;;;;;;;5019371;28;19909;-82
2022/03/16 09:31:28;;;;;;;;;;;;;;;;;;5017649;28;19917;-85
2022/03/16 09:33:53;;;;;;;;;;;;;;;;;;5019855;28;20267;-88
2022/03/16 09:36:18;;;;;;;;;;;;;;;;;;5018566;28;19917;-78
2022/03/16 09:38:43;;;;;;;;;;;;;;;;;;5019038;28;19909;-85
2022/03/16 09:41:08;;;;;;;;;;;;;;;;;;5017831;28;20409;-85
2022/03/16 09:43:33;;;;;;;;;;;;;;;;;;5019515;28;19916;-86
2022/03/16 09:45:59;;;;;;;;;;;;;;;;;;5020801;28;19917;-82
2022/03/16 09:48:24;;;;;;;;;;;;;;;;;;5022152;28;19909;-86
2022/03/16 09:50:49;;;;;;;;;;;;;;;;;;5023389;28;19940;-78
2022/03/16 09:53:15;;;;;;;;;;;;;;;;;;5020645;28;19914;-79
2022/03/16 09:55:40;;;;;;;;;;;;;;;;;;5022272;28;20404;-82
2022/03/16 09:58:05;;;;;;;;;;;;;;;;;;5023636;28;19929;-85
2022/03/16 10:00:33;;;;;;;;;;;;;;;;;;5041542;28;19913;-84
2022/03/16 10:02:59;;;;;;;;;;;;;;;;;;5012506;28;19900;-85
2022/03/16 10:05:24;;;;;;;;;;;;;;;;;;5046530;28;19952;-82
2022/03/16 10:07:49;;;;;;;;;;;;;;;;;;5042159;28;20517;-79
2022/03/16 10:13:13;;;;;;;;;;;;;;;;;;5021755;28;20314;-85
2022/03/16 10:15:38;;;;;;;;;;;;;;;;;;5021692;28;19910;-79
2022/03/16 10:18:04;;;;;;;;;;;;;;;;;;5037184;28;19909;-85
2022/03/16 10:20:29;;;;;;;;;;;;;;;;;;5036857;28;20383;-84
2022/03/16 10:22:56;;;;;;;;;;;;;;;;;;5022016;28;19913;-82
2022/03/16 10:25:21;;;;;;;;;;;;;;;;;;5037257;28;19916;-84
2022/03/16 10:27:46;;;;;;;;;;;;;;;;;;5022146;28;20012;-84
2022/03/16 10:30:11;;;;;;;;;;;;;;;;;;5037142;28;19910;-84
2022/03/16 10:32:38;;;;;;;;;;;;;;;;;;5018764;28;19940;-83
2022/03/16 10:35:06;;;;;;;;;;;;;;;;;;5020363;28;19910;-84
2022/03/16 10:37:31;;;;;;;;;;;;;;;;;;5035144;28;19910;-85
2022/03/16 10:39:56;;;;;;;;;;;;;;;;;;5019897;28;19919;-82
2022/03/16 10:47:52;;;;;;;;;;;;;;;;;;5019904;28;19951;-82
2022/03/16 10:50:17;;;;;;;;;;;;;;;;;;5019941;28;20279;-84
2022/03/16 10:52:44;;;;;;;;;;;;;;;;;;5020007;28;19902;-83
2022/03/16 10:55:09;;;;;;;;;;;;;;;;;;5020240;28;19909;-83
2022/03/16 10:57:34;;;;;;;;;;;;;;;;;;5033560;28;19973;-79
2022/03/16 10:59:59;;;;;;;;;;;;;;;;;;5034983;28;19909;-83
2022/03/16 11:02:28;;;;;;;;;;;;;;;;;;5019708;28;19960;-83
2022/03/16 11:04:53;;;;;;;;;;;;;;;;;;5019552;28;19910;-80
2022/03/16 11:07:18;;;;;;;;;;;;;;;;;;5035825;28;20290;-82
2022/03/16 11:09:43;;;;;;;;;;;;;;;;;;5035611;28;19904;-82
2022/03/16 11:14:52;;;;;;;;;;;;;;;;;;5018562;28;20293;-83
2022/03/16 11:17:17;;;;;;;;;;;;;;;;;;5034033;28;19910;-79
2022/03/16 11:19:46;;;;;;;;;;;;;;;;;;5032384;28;20335;-81
2022/03/16 11:22:11;;;;;;;;;;;;;;;;;;5018525;28;19964;-83
2022/03/16 11:24:36;;;;;;;;;;;;;;;;;;5018194;28;19917;-84
2022/03/16 11:27:03;;;;;;;;;;;;;;;;;;5018234;28;19917;-83
2022/03/16 11:29:28;;;;;;;;;;;;;;;;;;5018365;28;20425;-82
2022/03/16 11:31:53;;;;;;;;;;;;;;;;;;5016468;28;20363;-84
2022/03/16 11:34:21;;;;;;;;;;;;;;;;;;5016110;28;19913;-86
2022/03/16 11:36:47;;;;;;;;;;;;;;;;;;5015438;28;20008;-84
2022/03/16 11:39:14;;;;;;;;;;;;;;;;;;5017251;28;19910;-81
2022/03/16 11:41:43;;;;;;;;;;;;;;;;;;5017459;28;19910;-83
2022/03/16 11:44:08;;;;;;;;;;;;;;;;;;5018524;28;20278;-82
2022/03/16 11:46:34;;;;;;;;;;;;;;;;;;5017268;28;19917;-82
2022/03/16 11:49:00;;;;;;;;;;;;;;;;;;5017904;28;20321;-82
2022/03/16 11:51:26;;;;;;;;;;;;;;;;;;5018108;28;19944;-83
2022/03/16 11:53:58;;;;;;;;;;;;;;;;;;5016977;28;19913;-82
2022/03/16 11:56:23;;;;;;;;;;;;;;;;;;5017345;28;19960;-83
2022/03/16 11:58:48;;;;;;;;;;;;;;;;;;5017759;28;19910;-81
2022/03/16 12:01:13;;;;;;;;;;;;;;;;;;5018874;28;20023;-83
2022/03/16 12:03:38;;;;;;;;;;;;;;;;;;5018897;28;19909;-84
2022/03/16 12:06:03;;;;;;;;;;;;;;;;;;5018311;28;19901;-83
2022/03/16 12:08:28;;;;;;;;;;;;;;;;;;5016845;28;19917;-80
2022/03/16 12:12:50;;;;;;;;;;;;;;;;;;5017460;28;19913;-84
2022/03/16 12:13:38;;;;;;;;;;;;;;;;;;5014423;28;19952;-80
2022/03/16 12:16:04;;;;;;;;;;;;;;;;;;5011300;28;19910;-79
2022/03/16 12:18:31;;;;;;;;;;;;;;;;;;5020603;28;19948;-83
2022/03/16 12:20:56;;;;;;;;;;;;;;;;;;5025012;28;19925;-84
2022/03/16 12:23:21;;;;;;;;;;;;;;;;;;5019029;28;20307;-82
2022/03/16 12:25:46;;;;;;;;;;;;;;;;;;5033105;28;19945;-79
2022/03/16 12:30:55;;;;;;;;;;;;;;;;;;5018259;28;19941;-83
2022/03/16 12:33:22;;;;;;;;;;;;;;;;;;5033945;28;19909;-84
2022/03/16 12:35:47;;;;;;;;;;;;;;;;;;5032702;28;19917;-82
2022/03/16 12:38:12;;;;;;;;;;;;;;;;;;5033322;28;19913;-82
2022/03/16 12:42:31;;;;;;;;;;;;;;;;;;5017775;28;19956;-83
2022/03/16 12:43:27;;;;;;;;;;;;;;;;;;5017996;28;19920;-83
2022/03/16 12:45:52;;;;;;;;;;;;;;;;;;5033484;28;20366;-83
2022/03/16 12:48:18;;;;;;;;;;;;;;;;;;5018029;28;19909;-84
2022/03/16 12:50:44;;;;;;;;;;;;;;;;;;5029459;28;19917;-84
2022/03/16 12:53:09;;;;;;;;;;;;;;;;;;5029194;28;19918;-81
2022/03/16 12:55:34;;;;;;;;;;;;;;;;;;4997721;28;19956;-83
2022/03/16 12:57:59;;;;;;;;;;;;;;;;;;5028326;28;20008;-82
2022/03/16 13:00:26;;;;;;;;;;;;;;;;;;5029266;28;19916;-83
2022/03/16 13:02:51;;;;;;;;;;;;;;;;;;4998239;28;19910;-81
2022/03/16 13:05:17;;;;;;;;;;;;;;;;;;4997303;28;20461;-83
2022/03/16 13:07:42;;;;;;;;;;;;;;;;;;5029793;28;19918;-83
2022/03/16 13:10:07;;;;;;;;;;;;;;;;;;5030924;28;19910;-83
2022/03/16 13:12:33;;;;;;;;;;;;;;;;;;5029055;28;19941;-81
2022/03/16 13:14:58;;;;;;;;;;;;;;;;;;5028384;28;19917;-82
2022/03/16 13:17:24;;;;;;;;;;;;;;;;;;5027757;28;20396;-83
2022/03/16 13:19:55;;;;;;;;;;;;;;;;;;4996683;28;19956;-83
2022/03/16 13:22:22;;;;;;;;;;;;;;;;;;5012539;28;19921;-83
2022/03/16 13:24:47;;;;;;;;;;;;;;;;;;4997489;28;19910;-82
2022/03/16 13:27:12;;;;;;;;;;;;;;;;;;5012311;28;19924;-84
2022/03/16 13:29:37;;;;;;;;;;;;;;;;;;4997013;28;19917;-81
2022/03/16 13:32:03;;;;;;;;;;;;;;;;;;4995571;28;19913;-83
2022/03/16 13:34:29;;;;;;;;;;;;;;;;;;5012332;28;20009;-82
2022/03/16 13:36:54;;;;;;;;;;;;;;;;;;5012816;28;19909;-83
2022/03/16 13:39:19;;;;;;;;;;;;;;;;;;4996700;28;19936;-83
2022/03/16 13:42:04;;;;;;;;;;;;;;;;;;4996323;28;19894;-83
2022/03/16 13:44:34;;;;;;;;;;;;;;;;;;4996508;28;19914;-83
2022/03/16 13:46:59;;;;;;;;;;;;;;;;;;4997309;28;19928;-85
2022/03/16 13:49:24;;;;;;;;;;;;;;;;;;4997695;28;20008;-80
2022/03/16 13:51:49;;;;;;;;;;;;;;;;;;4995837;28;19920;-80
2022/03/16 13:54:14;;;;;;;;;;;;;;;;;;4995972;28;19910;-82
2022/03/16 13:56:41;;;;;;;;;;;;;;;;;;5011035;28;20290;-81
2022/03/16 13:59:06;;;;;;;;;;;;;;;;;;4996038;28;19937;-81
2022/03/16 14:01:31;;;;;;;;;;;;;;;;;;5010868;28;20380;-81
2022/03/16 14:03:56;;;;;;;;;;;;;;;;;;4995706;28;20264;-82
2022/03/16 14:06:21;;;;;;;;;;;;;;;;;;5010460;28;19918;-82
2022/03/16 14:08:47;;;;;;;;;;;;;;;;;;5009523;28;20275;-79
2022/03/16 14:11:12;;;;;;;;;;;;;;;;;;4994808;28;19910;-81
2022/03/16 14:13:37;;;;;;;;;;;;;;;;;;5010189;28;20003;-80
2022/03/16 14:16:02;;;;;;;;;;;;;;;;;;4995054;28;19996;-81
2022/03/16 14:18:28;;;;;;;;;;;;;;;;;;5010164;28;19999;-83
2022/03/16 14:20:53;;;;;;;;;;;;;;;;;;5016986;28;19921;-81
2022/03/16 14:23:18;;;;;;;;;;;;;;;;;;4994708;28;20115;-79
2022/03/16 14:25:46;;;;;;;;;;;;;;;;;;4995193;28;20005;-81
2022/03/16 14:28:11;;;;;;;;;;;;;;;;;;5026814;28;19954;-81
2022/03/16 14:30:36;;;;;;;;;;;;;;;;;;4995330;28;19932;-83
2022/03/16 14:33:01;;;;;;;;;;;;;;;;;;4996781;28;19910;-81
2022/03/16 14:35:26;;;;;;;;;;;;;;;;;;4998235;28;19976;-84
2022/03/16 14:37:52;;;;;;;;;;;;;;;;;;4998961;28;19917;-82
2022/03/16 14:40:18;;;;;;;;;;;;;;;;;;5029995;28;19936;-83
2022/03/16 14:42:43;;;;;;;;;;;;;;;;;;4997836;28;19909;-83
2022/03/16 14:45:08;;;;;;;;;;;;;;;;;;5029863;28;20375;-84
2022/03/16 14:47:34;;;;;;;;;;;;;;;;;;5029631;28;20399;-82
2022/03/16 14:50:00;;;;;;;;;;;;;;;;;;4998664;28;19914;-82
2022/03/16 14:52:26;;;;;;;;;;;;;;;;;;4998167;28;20383;-82
2022/03/16 14:54:51;;;;;;;;;;;;;;;;;;4996701;28;20255;-82
2022/03/16 14:57:17;;;;;;;;;;;;;;;;;;4997611;28;19914;-82
2022/03/16 14:59:42;;;;;;;;;;;;;;;;;;5030330;28;20585;-81
2022/03/16 15:02:07;;;;;;;;;;;;;;;;;;4998207;28;20350;-81
2022/03/16 15:04:34;;;;;;;;;;;;;;;;;;5029948;28;19916;-80
2022/03/16 15:06:59;;;;;;;;;;;;;;;;;;4997993;28;19925;-80
2022/03/16 15:09:24;;;;;;;;;;;;;;;;;;5029331;28;19914;-80
2022/03/16 15:11:49;;;;;;;;;;;;;;;;;;5029346;28;19910;-80
2022/03/16 15:14:14;;;;;;;;;;;;;;;;;;4996416;28;19964;-79
2022/03/16 15:16:39;;;;;;;;;;;;;;;;;;5027764;28;19910;-80
2022/03/16 15:19:04;;;;;;;;;;;;;;;;;;4996340;28;19917;-82
2022/03/16 15:21:30;;;;;;;;;;;;;;;;;;4998323;28;19953;-82
2022/03/16 15:23:55;;;;;;;;;;;;;;;;;;5013745;28;19906;-81
2022/03/16 15:26:21;;;;;;;;;;;;;;;;;;4998315;28;20347;-83
2022/03/16 15:28:51;;;;;;;;;;;;;;;;;;5012786;28;19914;-80
2022/03/16 15:31:17;;;;;;;;;;;;;;;;;;4999024;28;19921;-83
2022/03/16 15:33:42;;;;;;;;;;;;;;;;;;5015870;28;19910;-82
2022/03/16 15:36:07;;;;;;;;;;;;;;;;;;5015907;28;19965;-83
2022/03/16 15:38:33;;;;;;;;;;;;;;;;;;5017000;28;19973;-86
2022/03/16 15:43:42;;;;;;;;;;;;;;;;;;5002111;28;19933;-83
2022/03/16 15:46:08;;;;;;;;;;;;;;;;;;5016136;28;19917;-81
2022/03/16 15:48:33;;;;;;;;;;;;;;;;;;5016345;28;19909;-81
2022/03/16 15:50:58;;;;;;;;;;;;;;;;;;4999420;28;19921;-80
2022/03/16 15:53:23;;;;;;;;;;;;;;;;;;5000178;28;19921;-85
2022/03/16 15:55:50;;;;;;;;;;;;;;;;;;5016203;28;19910;-84
2022/03/16 15:58:15;;;;;;;;;;;;;;;;;;5015461;28;20379;-83
2022/03/16 16:00:41;;;;;;;;;;;;;;;;;;5015584;28;20289;-84
2022/03/16 16:03:07;;;;;;;;;;;;;;;;;;5016823;28;19921;-85
2022/03/16 16:05:32;;;;;;;;;;;;;;;;;;5016541;28;19917;-84
2022/03/16 16:07:57;;;;;;;;;;;;;;;;;;5014849;28;20000;-83
2022/03/16 16:10:22;;;;;;;;;;;;;;;;;;5014713;28;19921;-78
2022/03/16 16:12:48;;;;;;;;;;;;;;;;;;5016328;28;20008;-84
2022/03/16 16:15:13;;;;;;;;;;;;;;;;;;5016917;28;19917;-84
2022/03/16 16:17:38;;;;;;;;;;;;;;;;;;5002129;28;19894;-84
2022/03/16 16:20:11;;;;;;;;;;;;;;;;;;5017200;28;20336;-82
2022/03/16 16:22:36;;;;;;;;;;;;;;;;;;4999827;28;19917;-85
2022/03/16 16:25:01;;;;;;;;;;;;;;;;;;5030637;28;19909;-86
2022/03/16 16:27:27;;;;;;;;;;;;;;;;;;4999820;28;20364;-85
2022/03/16 16:29:53;;;;;;;;;;;;;;;;;;5030250;28;19909;-84
2022/03/16 16:32:18;;;;;;;;;;;;;;;;;;5030681;28;19926;-85
2022/03/16 16:34:45;;;;;;;;;;;;;;;;;;5031777;28;19910;-86
2022/03/16 16:37:11;;;;;;;;;;;;;;;;;;5000795;28;19910;-84
2022/03/16 16:39:38;;;;;;;;;;;;;;;;;;5031199;28;19914;-84
2022/03/16 16:44:49;;;;;;;;;;;;;;;;;;4999002;28;19937;-90
2022/03/16 16:47:17;;;;;;;;;;;;;;;;;;5031527;28;19925;-88
2022/03/16 16:49:42;;;;;;;;;;;;;;;;;;5003562;28;19914;-84
2022/03/16 16:52:07;;;;;;;;;;;;;;;;;;5036788;28;19914;-82
2022/03/16 16:54:32;;;;;;;;;;;;;;;;;;5005203;28;19909;-87